Terminal Aerodrome Forecast
Issued by NWS Wilmington, OH

Home | Current Version | Previous Version | Text Only | Print | Product List | Glossary On
Versions: 1 2 3 4 5 6 7 8 9 10 11 12 13 14 15 16 17 18 19 20 21 22 23
000
FTUS41 KILN 142106 AAC
TAFILN
TAF AMD
KILN 142106Z 1421/1518 33003KT P6SM OVC020
     FM142200 36004KT P6SM BKN035 BKN200
     FM150200 VRB03KT P6SM BKN150
     FM151000 21004KT P6SM SCT040 OVC150
     FM151400 23010KT P6SM BKN035
     FM151600 25013G19KT P6SM BKN030=

USA.gov is the U.S. government's official web portal to all federal, state and local government web resources and services.